createdAt,value
2022-12-11T00:00:31.265Z,2.89
2022-12-11T00:05:33.713Z,2.84
2022-12-11T00:10:37.999Z,2.77
2022-12-11T00:15:40.302Z,2.70
2022-12-11T00:20:42.853Z,2.62
2022-12-11T00:25:46.546Z,2.53
2022-12-11T00:30:48.865Z,2.49
2022-12-11T00:35:51.000Z,2.42
2022-12-11T00:40:53.314Z,2.36
2022-12-11T00:45:55.492Z,2.29
2022-12-11T00:50:57.976Z,2.26
2022-12-11T00:55:59.986Z,2.20
2022-12-11T01:01:14.882Z,2.12
2022-12-11T01:06:19.651Z,2.05
2022-12-11T01:11:21.859Z,2.02
2022-12-11T01:16:23.923Z,1.96
2022-12-11T01:21:26.077Z,1.90
2022-12-11T01:26:28.169Z,1.85
2022-12-11T01:31:30.360Z,1.80
2022-12-11T01:36:32.477Z,1.76
2022-12-11T01:41:34.659Z,1.70
2022-12-11T01:46:37.176Z,1.67
2022-12-11T01:51:53.801Z,1.61
2022-12-11T01:57:01.608Z,1.57
2022-12-11T02:07:55.915Z,1.48
2022-12-11T02:13:05.290Z,1.45
2022-12-11T02:18:18.500Z,1.40
2022-12-11T02:23:29.205Z,1.38
2022-12-11T02:28:42.597Z,1.33
2022-12-11T02:33:51.405Z,1.29
2022-12-11T02:38:55.070Z,1.23
2022-12-11T02:43:58.928Z,1.22
2022-12-11T02:49:03.154Z,1.17
2022-12-11T02:54:10.592Z,1.14
2022-12-11T02:59:26.207Z,1.09
2022-12-11T03:04:29.434Z,1.06
2022-12-11T03:09:32.413Z,1.02
2022-12-11T03:14:34.621Z,0.97
2022-12-11T03:19:47.900Z,0.94
2022-12-11T03:25:04.554Z,0.89
2022-12-11T03:30:14.176Z,0.86
2022-12-11T03:35:36.219Z,0.82
2022-12-11T03:40:42.744Z,0.77
2022-12-11T03:45:47.348Z,0.76
2022-12-11T03:50:50.658Z,0.72
2022-12-11T03:55:53.210Z,0.68
2022-12-11T04:00:55.181Z,0.63
2022-12-11T04:05:57.249Z,0.61
2022-12-11T04:11:17.545Z,0.58
2022-12-11T04:16:19.550Z,0.53
2022-12-11T04:21:40.124Z,0.49
2022-12-11T04:26:44.088Z,0.45
2022-12-11T04:31:46.216Z,0.42
2022-12-11T04:36:48.242Z,0.40
2022-12-11T04:41:50.287Z,0.37
2022-12-11T04:46:52.379Z,0.34
2022-12-11T04:51:54.489Z,0.30
2022-12-11T04:56:56.494Z,0.29
2022-12-11T05:01:58.641Z,0.26
2022-12-11T05:07:01.371Z,0.23
2022-12-11T05:12:03.941Z,0.21
2022-12-11T05:17:05.938Z,0.17
2022-12-11T05:22:07.931Z,0.14
2022-12-11T05:27:10.762Z,0.10
2022-12-11T05:32:12.798Z,0.08
2022-12-11T05:37:14.849Z,0.04
2022-12-11T05:42:16.806Z,0.03
2022-12-11T05:47:20.621Z,0.00
2022-12-11T05:52:22.600Z,-0.02
2022-12-11T05:57:24.566Z,-0.04
2022-12-11T06:02:26.603Z,-0.05
2022-12-11T06:07:28.622Z,-0.09
2022-12-11T06:12:31.476Z,-0.11
2022-12-11T06:17:34.551Z,-0.13
2022-12-11T06:22:36.701Z,-0.13
2022-12-11T06:27:38.714Z,-0.17
2022-12-11T06:32:41.221Z,-0.19
2022-12-11T06:37:43.174Z,-0.21
2022-12-11T06:42:46.381Z,-0.23
2022-12-11T06:47:48.386Z,0.68
2022-12-11T06:52:50.572Z,3.03
2022-12-11T06:57:52.921Z,3.79
2022-12-11T07:02:56.550Z,4.79
2022-12-11T07:07:58.769Z,5.73
2022-12-11T07:13:00.897Z,6.45
2022-12-11T07:18:03.051Z,7.05
2022-12-11T07:23:05.163Z,7.68
2022-12-11T07:28:09.129Z,8.25
2022-12-11T07:33:12.152Z,8.33
2022-12-11T07:38:14.344Z,8.84
2022-12-11T07:43:16.439Z,9.13
2022-12-11T07:48:18.647Z,9.24
2022-12-11T07:53:20.675Z,9.71
2022-12-11T07:58:22.773Z,9.94
2022-12-11T08:03:25.433Z,10.31
2022-12-11T08:08:27.517Z,10.68
2022-12-11T08:13:43.973Z,11.10
2022-12-11T08:18:50.710Z,11.04
2022-12-11T08:23:55.036Z,11.64
2022-12-11T08:28:59.731Z,12.10
2022-12-11T08:34:06.646Z,12.37
2022-12-11T08:39:10.764Z,12.06
2022-12-11T08:44:16.707Z,12.22
2022-12-11T08:49:32.715Z,12.24
2022-12-11T08:54:38.683Z,12.42
2022-12-11T08:59:43.944Z,12.80
2022-12-11T09:04:48.106Z,12.83
2022-12-11T09:09:55.514Z,12.97
2022-12-11T09:14:58.216Z,13.32
2022-12-11T09:20:00.352Z,13.19
2022-12-11T09:25:03.212Z,13.39
2022-12-11T09:30:06.146Z,13.49
2022-12-11T09:35:09.413Z,13.49
2022-12-11T09:40:12.893Z,13.22
2022-12-11T09:45:18.226Z,13.31
2022-12-11T09:50:31.559Z,13.33
2022-12-11T09:55:45.079Z,13.57
2022-12-11T10:01:01.372Z,13.36
2022-12-11T10:06:24.356Z,13.34
2022-12-11T10:11:26.328Z,13.73
2022-12-11T10:16:31.201Z,14.01
2022-12-11T10:21:42.403Z,13.82
2022-12-11T10:26:47.248Z,14.26
2022-12-11T10:32:03.103Z,12.63
2022-12-11T10:37:37.858Z,11.09
2022-12-11T10:42:45.526Z,10.58
2022-12-11T10:47:48.523Z,11.91
2022-12-11T10:52:55.164Z,12.94
2022-12-11T10:58:05.981Z,13.13
2022-12-11T11:03:33.795Z,13.52
2022-12-11T11:08:44.872Z,13.84
2022-12-11T11:13:49.062Z,13.57
2022-12-11T11:18:56.235Z,12.04
2022-12-11T11:23:58.968Z,11.52
2022-12-11T11:29:01.475Z,11.27
2022-12-11T11:34:12.021Z,11.11
2022-12-11T11:39:34.749Z,11.03
2022-12-11T11:45:00.811Z,11.01
2022-12-11T11:50:08.952Z,10.92
2022-12-11T11:55:42.785Z,10.89
2022-12-11T12:00:44.904Z,10.88
2022-12-11T12:05:59.377Z,10.33
2022-12-11T12:19:45.097Z,8.78
2022-12-11T12:24:53.738Z,8.48
2022-12-11T12:30:06.004Z,8.19
2022-12-11T12:35:38.673Z,7.87
2022-12-11T12:40:52.639Z,8.01
2022-12-11T12:46:10.992Z,7.86
2022-12-11T12:51:17.099Z,8.10
2022-12-11T12:56:21.179Z,8.32
2022-12-11T13:01:26.561Z,8.36
2022-12-11T13:06:38.450Z,7.81
2022-12-11T13:11:40.864Z,7.47
2022-12-11T13:16:52.245Z,8.44
2022-12-11T13:22:21.210Z,8.71
2022-12-11T13:27:25.465Z,8.78
2022-12-11T13:32:31.485Z,8.88
2022-12-11T13:37:36.873Z,8.97
2022-12-11T13:43:01.785Z,9.03
2022-12-11T13:48:16.638Z,9.05
2022-12-11T13:53:20.704Z,9.12
2022-12-11T13:58:24.083Z,9.14
2022-12-11T14:03:26.532Z,9.22
2022-12-11T14:08:35.517Z,9.27
2022-12-11T14:13:41.256Z,9.35
2022-12-11T14:18:43.429Z,9.35
2022-12-11T14:23:52.095Z,9.38
2022-12-11T14:28:54.467Z,9.47
2022-12-11T14:34:03.571Z,9.48
2022-12-11T14:39:36.255Z,9.51
2022-12-11T14:45:21.662Z,9.55
2022-12-11T14:50:39.117Z,9.56
2022-12-11T14:55:49.899Z,9.61
2022-12-11T15:01:26.747Z,9.66
2022-12-11T15:06:32.293Z,9.62
2022-12-11T15:11:34.659Z,9.62
2022-12-11T15:16:41.387Z,9.62
2022-12-11T15:21:43.916Z,9.63
2022-12-11T15:26:48.206Z,9.61
2022-12-11T15:32:28.297Z,9.66
2022-12-11T15:37:38.756Z,9.66
2022-12-11T15:42:42.978Z,9.62
2022-12-11T15:47:46.861Z,9.68
2022-12-11T15:52:50.276Z,9.71
2022-12-11T15:57:56.487Z,9.78
2022-12-11T16:02:59.343Z,9.18
2022-12-11T16:08:01.826Z,9.61
2022-12-11T16:13:04.112Z,9.67
2022-12-11T16:18:10.710Z,9.71
2022-12-11T16:23:15.523Z,9.74
2022-12-11T16:28:22.607Z,9.76
2022-12-11T16:33:25.388Z,9.81
2022-12-11T16:38:27.848Z,9.82
2022-12-11T16:43:30.912Z,9.86
2022-12-11T16:48:33.758Z,9.84
2022-12-11T16:53:36.956Z,9.92
2022-12-11T16:58:40.910Z,9.98
2022-12-11T17:03:45.314Z,9.91
2022-12-11T17:08:48.032Z,9.99
2022-12-11T17:13:59.047Z,10.02
2022-12-11T17:19:03.465Z,10.00
2022-12-11T17:24:07.020Z,10.06
2022-12-11T17:29:14.527Z,10.03
2022-12-11T17:34:17.140Z,10.05
2022-12-11T17:39:19.725Z,10.02
2022-12-11T17:44:22.782Z,10.09
2022-12-11T17:49:26.862Z,10.16
2022-12-11T17:54:41.980Z,10.13
2022-12-11T17:59:55.664Z,10.11
2022-12-11T18:05:02.323Z,10.12
2022-12-11T18:10:05.989Z,10.18
2022-12-11T18:15:09.770Z,10.24
2022-12-11T18:20:17.601Z,10.21
2022-12-11T18:25:20.826Z,10.19
2022-12-11T18:30:25.559Z,10.23
2022-12-11T18:35:35.480Z,9.93
2022-12-11T18:40:40.972Z,10.16
2022-12-11T18:45:49.176Z,10.19
2022-12-11T18:50:53.436Z,10.26
2022-12-11T18:56:00.321Z,10.29
2022-12-11T19:01:27.121Z,10.33
2022-12-11T19:06:41.033Z,10.31
2022-12-11T19:11:45.952Z,10.29
2022-12-11T19:16:52.621Z,10.34
2022-12-11T19:21:56.837Z,10.36
2022-12-11T19:27:00.928Z,10.42
2022-12-11T19:32:05.658Z,10.42
2022-12-11T19:37:11.444Z,10.44
2022-12-11T19:42:26.433Z,10.42
2022-12-11T19:47:32.445Z,10.50
2022-12-11T19:52:45.794Z,10.47
2022-12-11T19:57:54.226Z,10.38
2022-12-11T20:02:59.237Z,10.40
2022-12-11T20:08:27.676Z,10.36
2022-12-11T20:13:28.045Z,10.31
2022-12-11T20:18:31.410Z,10.25
2022-12-11T20:23:35.266Z,10.24
2022-12-11T20:34:05.830Z,10.25
2022-12-11T20:39:16.156Z,10.20
2022-12-11T20:44:25.680Z,10.16
2022-12-11T20:49:30.226Z,10.05
2022-12-11T20:54:33.851Z,10.09
2022-12-11T20:59:38.748Z,10.13
2022-12-11T21:04:42.666Z,10.04
2022-12-11T21:09:45.145Z,10.06
2022-12-11T21:14:48.527Z,10.06
2022-12-11T21:20:11.257Z,10.07
2022-12-11T21:25:14.150Z,10.06
2022-12-11T21:30:20.473Z,10.09
2022-12-11T21:35:24.974Z,10.07
2022-12-11T21:40:34.164Z,10.04
2022-12-11T21:46:00.957Z,10.09
2022-12-11T21:51:11.963Z,10.08
2022-12-11T21:56:24.525Z,9.43
2022-12-11T22:01:32.570Z,8.69
2022-12-11T22:06:35.210Z,8.18
2022-12-11T22:11:37.377Z,9.36
2022-12-11T22:16:41.400Z,9.11
2022-12-11T22:21:43.446Z,8.79
2022-12-11T22:26:45.632Z,8.48
2022-12-11T22:31:47.819Z,8.14
2022-12-11T22:36:49.981Z,7.82
2022-12-11T22:41:52.050Z,7.56
2022-12-11T22:46:54.022Z,7.33
2022-12-11T22:51:57.775Z,7.08
2022-12-11T22:56:59.764Z,6.85
2022-12-11T23:02:02.082Z,6.63
2022-12-11T23:07:04.522Z,6.44
2022-12-11T23:12:07.033Z,6.24
2022-12-11T23:17:10.403Z,6.08
2022-12-11T23:22:13.455Z,5.90
2022-12-11T23:27:15.654Z,5.75
2022-12-11T23:32:17.606Z,5.61
2022-12-11T23:37:20.254Z,5.44
2022-12-11T23:42:22.302Z,5.29
2022-12-11T23:47:24.415Z,5.12
2022-12-11T23:52:26.883Z,5.00
2022-12-11T23:57:28.828Z,4.86
